createdAt,value
2019-01-11T00:02:58.183Z,27.76
2019-01-11T00:08:07.268Z,27.02
2019-01-11T00:13:16.508Z,26.62
2019-01-11T00:18:25.662Z,28.11
2019-01-11T00:23:34.869Z,24.51
2019-01-11T00:28:44.281Z,26.52
2019-01-11T00:33:53.141Z,26.30
2019-01-11T00:39:02.209Z,24.91
2019-01-11T00:44:11.464Z,26.91
2019-01-11T00:49:20.545Z,25.24
2019-01-11T00:54:29.822Z,23.99
2019-01-11T00:59:38.845Z,26.44
2019-01-11T01:04:48.064Z,24.68
2019-01-11T01:09:57.241Z,25.12
2019-01-11T01:15:06.514Z,24.43
2019-01-11T01:20:16.061Z,24.99
2019-01-11T01:25:25.230Z,24.76
2019-01-11T01:30:34.317Z,24.59
2019-01-11T01:35:43.921Z,23.98
2019-01-11T01:40:53.065Z,22.83
2019-01-11T01:46:02.216Z,21.99
2019-01-11T01:51:11.374Z,22.38
2019-01-11T01:56:20.618Z,21.70
2019-01-11T02:01:30.131Z,21.50
2019-01-11T02:06:39.284Z,21.67
2019-01-11T02:11:48.642Z,20.54
2019-01-11T02:16:57.943Z,19.64
2019-01-11T02:22:05.557Z,19.89
2019-01-11T02:27:14.712Z,20.08
2019-01-11T02:32:23.833Z,18.65
2019-01-11T02:37:33.367Z,17.59
2019-01-11T02:42:42.446Z,18.93
2019-01-11T02:47:51.750Z,17.78
2019-01-11T02:53:00.880Z,17.34
2019-01-11T02:58:10.070Z,17.74
2019-01-11T03:03:19.213Z,17.60
2019-01-11T03:08:28.383Z,18.01
2019-01-11T03:13:37.463Z,17.68
2019-01-11T03:18:46.665Z,19.10
2019-01-11T03:23:55.766Z,19.13
2019-01-11T03:29:05.009Z,19.18
2019-01-11T03:34:14.104Z,20.62
2019-01-11T03:39:23.329Z,20.29
2019-01-11T03:44:32.414Z,21.68
2019-01-11T03:49:41.645Z,22.92
2019-01-11T03:54:50.741Z,21.66
2019-01-11T03:59:59.953Z,22.65
2019-01-11T04:05:09.130Z,22.61
2019-01-11T04:10:18.761Z,22.30
2019-01-11T04:15:26.404Z,22.66
2019-01-11T04:20:35.632Z,23.34
2019-01-11T04:25:44.706Z,23.87
2019-01-11T04:30:53.968Z,23.67
2019-01-11T04:36:03.041Z,22.80
2019-01-11T04:41:12.303Z,24.03
2019-01-11T04:46:21.371Z,23.08
2019-01-11T04:51:30.549Z,23.05
2019-01-11T04:56:38.174Z,34.96
2019-01-11T05:01:47.348Z,24.67
2019-01-11T05:06:56.412Z,24.47
2019-01-11T05:12:05.708Z,25.66
2019-01-11T05:17:14.769Z,25.01
2019-01-11T05:22:23.931Z,26.29
2019-01-11T05:27:33.077Z,26.49
2019-01-11T05:32:42.217Z,27.26
2019-01-11T05:37:51.295Z,26.55
2019-01-11T05:43:00.831Z,27.12
2019-01-11T05:48:09.914Z,26.22
2019-01-11T05:53:19.469Z,27.27
2019-01-11T05:58:28.561Z,28.09
2019-01-11T06:03:38.081Z,28.84
2019-01-11T06:08:47.149Z,29.38
2019-01-11T06:13:56.381Z,30.37
2019-01-11T06:19:04.154Z,29.54
2019-01-11T06:24:13.409Z,30.33
2019-01-11T06:29:22.545Z,31.30
2019-01-11T06:34:31.745Z,29.77
2019-01-11T06:39:40.861Z,30.13
2019-01-11T06:44:50.126Z,29.41
2019-01-11T06:49:59.206Z,31.41
2019-01-11T06:55:08.386Z,29.69
2019-01-11T07:00:17.530Z,30.83
2019-01-11T07:05:27.015Z,29.56
2019-01-11T07:10:36.497Z,29.23
2019-01-11T07:15:45.725Z,28.42
2019-01-11T07:20:54.845Z,29.15
2019-01-11T07:26:04.065Z,26.60
2019-01-11T07:31:13.134Z,26.91
2019-01-11T07:36:22.300Z,26.41
2019-01-11T07:41:31.472Z,27.72
2019-01-11T07:46:40.718Z,28.53
2019-01-11T07:51:49.789Z,29.24
2019-01-11T07:56:59.285Z,27.03
2019-01-11T08:02:08.366Z,26.93
2019-01-11T08:07:17.590Z,27.71
2019-01-11T08:12:26.688Z,26.09
2019-01-11T08:17:35.956Z,24.89
2019-01-11T08:22:45.040Z,24.51
2019-01-11T08:27:54.238Z,23.65
2019-01-11T08:33:03.349Z,22.56
2019-01-11T08:38:12.648Z,21.49
2019-01-11T08:43:21.839Z,18.91
2019-01-11T08:48:31.057Z,16.75
2019-01-11T08:53:40.285Z,14.54
2019-01-11T08:58:50.686Z,11.54
2019-01-11T09:03:58.233Z,10.13
2019-01-11T09:09:07.434Z,10.07
2019-01-11T09:14:16.628Z,8.07
2019-01-11T09:19:25.901Z,6.36
2019-01-11T09:24:34.998Z,6.82
2019-01-11T09:29:44.228Z,7.08
2019-01-11T09:34:53.328Z,6.49
2019-01-11T09:40:02.584Z,6.18
2019-01-11T09:45:11.737Z,5.51
2019-01-11T09:50:20.909Z,5.09
2019-01-11T09:55:30.013Z,5.25
2019-01-11T10:00:39.198Z,5.72
2019-01-11T10:05:48.257Z,5.23
2019-01-11T10:10:57.697Z,4.80
2019-01-11T10:16:07.174Z,4.92
2019-01-11T10:21:22.022Z,5.76
2019-01-11T10:26:25.512Z,4.62
2019-01-11T10:31:34.895Z,4.29
2019-01-11T10:36:44.381Z,4.57
2019-01-11T10:41:53.740Z,4.59
2019-01-11T10:47:02.833Z,4.66
2019-01-11T10:52:12.116Z,3.69
2019-01-11T10:57:21.213Z,3.28
2019-01-11T11:02:30.473Z,3.44
2019-01-11T11:07:39.544Z,3.42
2019-01-11T11:12:48.779Z,3.38
2019-01-11T11:17:58.297Z,3.21
2019-01-11T11:23:07.609Z,3.37
2019-01-11T11:28:16.758Z,3.89
2019-01-11T11:33:26.057Z,3.76
2019-01-11T11:38:35.581Z,3.31
2019-01-11T11:43:44.847Z,3.13
2019-01-11T11:48:53.909Z,2.69
2019-01-11T11:54:03.198Z,3.22
2019-01-11T11:59:12.302Z,2.39
2019-01-11T12:04:21.481Z,2.70
2019-01-11T12:09:30.717Z,2.91
2019-01-11T12:14:40.335Z,3.72
2019-01-11T12:19:49.432Z,3.65
2019-01-11T12:24:58.767Z,5.11
2019-01-11T12:30:07.849Z,3.62
2019-01-11T12:35:17.129Z,2.82
2019-01-11T12:40:26.239Z,3.11
2019-01-11T12:45:35.496Z,3.47
2019-01-11T12:50:44.601Z,3.16
2019-01-11T12:55:53.750Z,4.40
2019-01-11T13:01:02.838Z,3.96
2019-01-11T13:06:12.103Z,2.97
2019-01-11T13:11:21.180Z,2.92
2019-01-11T13:16:30.433Z,3.44
2019-01-11T13:21:39.540Z,3.68
2019-01-11T13:26:48.767Z,3.21
2019-01-11T13:31:57.945Z,4.98
2019-01-11T13:37:07.170Z,4.18
2019-01-11T13:42:16.373Z,3.72
2019-01-11T13:47:25.587Z,4.08
2019-01-11T13:52:34.651Z,5.07
2019-01-11T13:57:43.872Z,5.09
2019-01-11T14:02:52.982Z,5.12
2019-01-11T14:08:00.670Z,5.24
2019-01-11T14:13:09.785Z,4.90
2019-01-11T14:18:19.096Z,5.59
2019-01-11T14:23:28.165Z,5.62
2019-01-11T14:28:37.369Z,5.88
2019-01-11T14:33:46.586Z,6.11
2019-01-11T14:38:55.814Z,6.15
2019-01-11T14:44:04.938Z,6.01
2019-01-11T14:49:14.215Z,6.60
2019-01-11T14:54:23.301Z,6.48
2019-01-11T14:59:32.525Z,7.26
2019-01-11T15:04:41.622Z,6.73
2019-01-11T15:09:50.955Z,7.05
2019-01-11T15:15:00.033Z,7.33
2019-01-11T15:20:09.327Z,7.61
2019-01-11T15:25:18.415Z,7.96
2019-01-11T15:30:27.625Z,7.25
2019-01-11T15:35:36.789Z,7.78
2019-01-11T15:40:46.051Z,8.01
2019-01-11T15:45:55.166Z,8.39
2019-01-11T15:51:04.522Z,8.31
2019-01-11T15:56:13.698Z,8.44
2019-01-11T16:01:23.410Z,8.66
2019-01-11T16:06:32.634Z,8.52
2019-01-11T16:11:41.866Z,9.22
2019-01-11T16:16:51.004Z,8.50
2019-01-11T16:22:00.225Z,9.25
2019-01-11T16:27:09.321Z,10.42
2019-01-11T16:32:18.548Z,9.11
2019-01-11T16:37:27.638Z,9.73
2019-01-11T16:42:38.808Z,10.08
2019-01-11T16:47:45.869Z,10.12
2019-01-11T16:52:55.050Z,10.20
2019-01-11T16:58:05.777Z,10.24
2019-01-11T17:03:04.951Z,10.53
2019-01-11T17:08:14.045Z,10.15
2019-01-11T17:13:23.346Z,10.59
2019-01-11T17:18:32.552Z,10.22
2019-01-11T17:23:42.167Z,10.96
2019-01-11T17:28:49.905Z,10.88
2019-01-11T17:47:06.805Z,12.39
2019-01-11T17:52:05.839Z,10.72
2019-01-11T17:57:15.055Z,11.77
2019-01-11T18:02:24.154Z,11.54
2019-01-11T18:07:33.383Z,12.35
2019-01-11T18:12:42.521Z,13.58
2019-01-11T18:17:51.783Z,12.47
2019-01-11T18:23:06.738Z,11.27
2019-01-11T18:28:09.889Z,12.87
2019-01-11T18:33:19.423Z,13.73
2019-01-11T18:38:28.597Z,12.97
2019-01-11T18:43:37.757Z,13.64
2019-01-11T18:48:47.141Z,14.17
2019-01-11T18:53:56.274Z,14.43
2019-01-11T18:59:05.560Z,13.93
2019-01-11T19:04:14.730Z,14.15
2019-01-11T19:09:24.125Z,13.36
2019-01-11T19:14:33.345Z,13.36
2019-01-11T19:19:42.888Z,12.74
2019-01-11T19:24:52.034Z,12.88
2019-01-11T19:30:02.074Z,12.92
2019-01-11T19:35:01.133Z,12.99
2019-01-11T19:40:10.411Z,13.38
2019-01-11T19:45:19.494Z,12.71
2019-01-11T19:50:28.718Z,14.39
2019-01-11T19:55:37.921Z,13.10
2019-01-11T20:00:47.248Z,12.39
2019-01-11T20:05:56.404Z,12.63
2019-01-11T20:11:06.492Z,13.21
2019-01-11T20:16:06.134Z,11.84
2019-01-11T20:21:15.405Z,13.34
2019-01-11T20:26:24.505Z,12.53
2019-01-11T20:31:33.751Z,12.03
2019-01-11T20:36:43.128Z,12.36
2019-01-11T20:41:52.585Z,11.37
2019-01-11T20:47:01.974Z,11.29
2019-01-11T20:52:11.705Z,12.54
2019-01-11T20:57:20.840Z,11.57
2019-01-11T21:02:30.142Z,11.47
2019-01-11T21:07:39.393Z,10.84
2019-01-11T21:12:48.686Z,11.96
2019-01-11T21:17:58.150Z,11.03
2019-01-11T21:23:07.352Z,10.97
2019-01-11T21:28:16.489Z,11.00
2019-01-11T21:33:25.648Z,10.90
2019-01-11T21:38:35.070Z,10.60
2019-01-11T21:43:44.372Z,10.35
2019-01-11T21:48:53.467Z,11.42
2019-01-11T21:54:03.518Z,10.90
2019-01-11T21:59:02.590Z,10.77
2019-01-11T22:04:11.789Z,10.45
2019-01-11T22:09:20.868Z,10.94
2019-01-11T22:14:30.149Z,11.66
2019-01-11T22:19:39.326Z,11.41
2019-01-11T22:24:48.565Z,10.26
2019-01-11T22:29:57.648Z,10.86
2019-01-11T22:35:06.820Z,11.54
2019-01-11T22:40:15.949Z,11.22
2019-01-11T22:45:25.185Z,10.44
2019-01-11T22:50:34.250Z,9.90
2019-01-11T22:55:43.405Z,10.20
2019-01-11T23:00:52.502Z,10.01
2019-01-11T23:06:08.895Z,9.92
2019-01-11T23:11:10.337Z,9.11
2019-01-11T23:16:19.748Z,10.80
2019-01-11T23:21:28.897Z,9.89
2019-01-11T23:26:38.295Z,10.53
2019-01-11T23:31:47.678Z,9.85
2019-01-11T23:36:56.909Z,9.60
2019-01-11T23:42:05.982Z,10.21
2019-01-11T23:47:15.202Z,10.65
2019-01-11T23:52:24.339Z,10.14
2019-01-11T23:57:33.590Z,10.62
